Accueil
METAR-TAF:

METAR-TAF

Aéroports :

Base aérienne

Landivisiau, France

latitude: 48-31N, longitude: 004-09W, altitude: 106 m

Observation

Le bulletin a été fait il y a 32 minutes, à 12:00 UTC
Vent 11 kt de sud, variant entre sud/sud-est et sud/sud-ouest
Température 11°C
Humidité 71%
Pression 1013 hPa
Visibilité 10 km ou plus
pas de nuages en-dessous de 1500 mètres et pas de cumulonimbus.

METAR: LFRJ 191200Z AUTO 18011KT 150V210 CAVOK 11/06 Q1013 NOSIG

Heure: 13:32 (12:32 UTC)

Prévision

Le bulletin a été fait il y a 1 heure et 32 minutes, à 11:00 UTC
Prévision valable du 19 à 12 UTC au 19 à 21 UTC
Vent 8 kt de sud/sud-est
Visibilité 10 km ou plus
pas de nuages en-dessous de 1500 mètres et pas de cumulonimbus.
Temporairement
du 19 à 12 UTC au 19 à 21 UTC
Nuages fragmentés à une hauteur de 2000 ft

TAF: LFRJ 191100Z 1912/1921 16008KT CAVOK TEMPO 1912/1921 BKN020

Observations et prévisions météorologiques de plus de 4000 aéroports (messages METAR et TAF).

Les stations disponibles sont représentées par des disques jaunes et rouges sur la carte.

Passer la souris dessus pour voir le nom de la station.

Cliquer dessus pour voir les observations et prévisions météorologiques.

Pour changer de carte: cliquez sur les boutons verts avec une croix noire pour zoomer, sur le bouton vert avec un tiret pour effectuer un zoom arrière, ou sur les flèches vertes pour les cartes adjacentes.


METAR-TAF: